Time;durP1;ratioP1;P1;durP2;ratioP2;P2;SDS_P1;SDS_P2;PMS_P1;PMS_P2;Temp;Humidity;BMP_temperature;BMP_pressure;BME280_temperature;BME280_humidity;BME280_pressure;Samples;Min_cycle;Max_cycle;Signal;HPM_P1;HPM_P2
2023/10/17 00:01:17;;;;;;;18.08;9.10;;;;;;;3.06;100.00;96694.56;5013111;28;20045;-69
2023/10/17 00:03:45;;;;;;;16.02;9.73;;;;;;;2.86;100.00;96689.75;5021912;28;20456;-67
2023/10/17 00:06:13;;;;;;;17.33;10.63;;;;;;;2.60;100.00;96687.03;5023476;28;20075;-67
2023/10/17 00:08:39;;;;;;;16.58;10.23;;;;;;;2.41;100.00;96698.09;5031535;28;20064;-68
2023/10/17 00:11:17;;;;;;;16.30;10.25;;;;;;;2.28;100.00;96697.09;5032361;28;20049;-70
2023/10/17 00:16:38;;;;;;;19.83;11.65;;;;;;;2.26;100.00;96697.41;5022529;28;20079;-66
2023/10/17 00:19:05;;;;;;;21.88;12.15;;;;;;;2.29;100.00;96688.69;5018760;28;20484;-69
2023/10/17 00:21:32;;;;;;;17.88;12.10;;;;;;;2.23;100.00;96687.25;5028377;28;20041;-68
2023/10/17 00:23:59;;;;;;;17.42;11.23;;;;;;;2.25;100.00;96682.31;4990592;28;20516;-69
2023/10/17 00:26:25;;;;;;;17.75;12.10;;;;;;;2.24;100.00;96682.63;5013067;28;20361;-65
2023/10/17 00:28:52;;;;;;;26.10;12.98;;;;;;;2.34;100.00;96679.66;5005204;28;20048;-66
2023/10/17 00:31:21;;;;;;;21.65;12.23;;;;;;;2.43;100.00;96666.13;5010335;28;20045;-67
2023/10/17 00:33:55;;;;;;;22.17;12.17;;;;;;;2.46;100.00;96669.00;5016391;28;20048;-68
2023/10/17 00:36:21;;;;;;;17.48;11.45;;;;;;;2.45;100.00;96672.03;5028294;28;20135;-69
2023/10/17 00:38:46;;;;;;;16.35;9.63;;;;;;;2.53;100.00;96659.66;5010034;28;20034;-68
2023/10/17 00:44:14;;;;;;;21.13;12.07;;;;;;;2.40;100.00;96661.38;4979824;28;20037;-67
2023/10/17 00:46:41;;;;;;;15.57;10.27;;;;;;;2.27;100.00;96669.28;5028379;28;20064;-67
2023/10/17 00:49:10;;;;;;;16.25;9.88;;;;;;;2.23;100.00;96671.03;5024347;28;20041;-67
2023/10/17 00:51:39;;;;;;;16.88;11.05;;;;;;;2.18;100.00;96676.56;5022567;28;20048;-67
2023/10/17 00:54:11;;;;;;;22.08;12.70;;;;;;;2.15;100.00;96679.09;5008329;28;20144;-66
2023/10/17 00:56:37;;;;;;;20.67;12.43;;;;;;;2.05;100.00;96669.34;5027500;28;20056;-67
2023/10/17 00:59:07;;;;;;;21.60;12.02;;;;;;;2.13;100.00;96673.22;5017041;28;20476;-70
2023/10/17 01:01:33;;;;;;;22.27;12.77;;;;;;;2.23;100.00;96660.22;5023448;28;20119;-68
2023/10/17 01:03:59;;;;;;;16.55;11.02;;;;;;;2.21;100.00;96659.72;5026296;28;20474;-66
2023/10/17 01:08:57;;;;;;;19.52;11.68;;;;;;;1.84;100.00;96656.41;5013736;28;20392;-66
2023/10/17 01:11:29;;;;;;;19.38;11.63;;;;;;;1.68;100.00;96655.22;5017081;28;20902;-67
2023/10/17 01:13:54;;;;;;;17.70;11.32;;;;;;;1.58;100.00;96658.16;5022476;28;20037;-66
2023/10/17 01:16:21;;;;;;;19.40;11.85;;;;;;;1.63;100.00;96652.66;5007167;28;20074;-68
2023/10/17 01:18:47;;;;;;;19.13;11.18;;;;;;;1.75;100.00;96652.06;5037348;28;20042;-67
2023/10/17 01:21:14;;;;;;;18.55;11.00;;;;;;;1.69;100.00;96654.91;5024788;28;20049;-68
2023/10/17 01:23:39;;;;;;;19.58;11.73;;;;;;;1.75;100.00;96657.47;5023023;28;20571;-68
2023/10/17 01:26:08;;;;;;;19.52;10.77;;;;;;;1.76;100.00;96651.75;5026741;28;20160;-70
2023/10/17 01:28:35;;;;;;;18.17;11.35;;;;;;;1.78;100.00;96657.63;5013477;28;20139;-67
2023/10/17 01:31:05;;;;;;;18.83;11.10;;;;;;;1.86;100.00;96664.19;5013494;28;20045;-67
2023/10/17 01:33:30;;;;;;;16.98;10.80;;;;;;;1.87;100.00;96669.31;5028178;28;20063;-67
2023/10/17 01:35:57;;;;;;;20.42;11.25;;;;;;;1.83;100.00;96667.50;5021074;28;20046;-68
2023/10/17 01:38:26;;;;;;;18.40;11.38;;;;;;;1.81;100.00;96670.53;5024281;28;20124;-68
2023/10/17 01:40:53;;;;;;;16.58;10.30;;;;;;;1.68;100.00;96661.41;5031338;28;20854;-67
2023/10/17 01:43:19;;;;;;;17.50;10.48;;;;;;;1.29;100.00;96671.00;5024372;28;20152;-67
2023/10/17 01:45:48;;;;;;;19.65;10.85;;;;;;;1.04;100.00;96667.00;5012542;28;20544;-68
2023/10/17 01:48:13;;;;;;;17.37;11.00;;;;;;;0.96;100.00;96659.66;5024455;28;20038;-66
2023/10/17 01:50:39;;;;;;;17.55;11.20;;;;;;;1.14;100.00;96657.91;5020542;28;20057;-67
2023/10/17 01:53:12;;;;;;;22.70;12.05;;;;;;;1.17;100.00;96662.69;5022597;28;20504;-67
2023/10/17 01:55:39;;;;;;;15.82;10.63;;;;;;;1.35;100.00;96663.56;5032746;28;20053;-67
2023/10/17 01:58:07;;;;;;;21.10;12.38;;;;;;;1.46;100.00;96669.53;5024163;28;20045;-68
2023/10/17 02:02:59;;;;;;;19.10;11.93;;;;;;;1.61;100.00;96658.34;5044967;28;20049;-67
2023/10/17 02:05:25;;;;;;;19.95;11.52;;;;;;;1.45;100.00;96663.34;5023820;28;20049;-68
2023/10/17 02:07:51;;;;;;;18.92;11.27;;;;;;;1.42;100.00;96660.44;5053950;28;20045;-67
2023/10/17 02:10:21;;;;;;;17.88;11.60;;;;;;;1.47;100.00;96663.81;5014324;28;20048;-67
2023/10/17 02:12:48;;;;;;;18.45;11.73;;;;;;;1.45;100.00;96663.34;5025747;28;20046;-67
2023/10/17 02:15:19;;;;;;;17.75;11.15;;;;;;;1.44;100.00;96669.84;5029849;28;20133;-68
2023/10/17 02:17:47;;;;;;;17.45;11.20;;;;;;;1.45;100.00;96663.34;5024668;28;20408;-67
2023/10/17 02:23:13;;;;;;;19.88;11.82;;;;;;;1.50;100.00;96663.22;5020846;28;20045;-66
2023/10/17 02:25:41;;;;;;;18.10;12.45;;;;;;;1.35;100.00;96663.56;5016593;28;20411;-67
2023/10/17 02:28:07;;;;;;;19.15;11.45;;;;;;;1.19;100.00;96665.88;5025836;28;20106;-64
2023/10/17 02:30:32;;;;;;;23.15;12.95;;;;;;;1.02;100.00;96669.22;5028177;28;20140;-65
2023/10/17 02:33:00;;;;;;;21.30;13.93;;;;;;;1.07;100.00;96666.41;5036019;28;20396;-68
2023/10/17 02:35:43;;;;;;;22.50;12.90;;;;;;;1.20;100.00;96663.97;5012464;28;20045;-66
2023/10/17 02:38:09;;;;;;;25.42;13.50;;;;;;;1.00;100.00;96670.66;5019301;28;20491;-66
2023/10/17 02:40:38;;;;;;;20.67;12.95;;;;;;;0.76;100.00;96664.41;5032718;28;20083;-65
2023/10/17 02:43:03;;;;;;;21.50;13.82;;;;;;;0.68;100.00;96657.03;4999840;28;20088;-69
2023/10/17 02:45:29;;;;;;;27.50;13.70;;;;;;;0.91;100.00;96651.69;5030767;28;20769;-65
2023/10/17 02:50:49;;;;;;;26.83;14.65;;;;;;;0.86;100.00;96657.97;5017162;28;20092;-65
2023/10/17 02:53:15;;;;;;;22.52;13.25;;;;;;;0.76;100.00;96650.16;5017307;28;20042;-67
2023/10/17 02:55:40;;;;;;;21.70;13.02;;;;;;;0.98;100.00;96657.47;5029386;28;20061;-67
2023/10/17 02:58:05;;;;;;;23.88;13.45;;;;;;;1.00;100.00;96657.16;5026007;28;20522;-66
2023/10/17 03:00:34;;;;;;;26.10;14.60;;;;;;;1.17;100.00;96656.47;5030982;28;20111;-67
2023/10/17 03:03:00;;;;;;;24.65;13.70;;;;;;;1.16;100.00;96654.91;5024123;28;20046;-66
2023/10/17 03:05:29;;;;;;;22.48;14.13;;;;;;;1.17;100.00;96656.47;5009373;28;20124;-68
2023/10/17 03:07:55;;;;;;;19.63;12.32;;;;;;;1.22;100.00;96667.16;4990232;28;20121;-66
2023/10/17 03:10:40;;;;;;;20.48;12.52;;;;;;;1.24;100.00;96662.25;5011614;28;20460;-69
2023/10/17 03:13:22;;;;;;;19.88;11.48;;;;;;;1.21;100.00;96658.28;5024501;28;20033;-69
2023/10/17 03:15:57;;;;;;;18.63;11.32;;;;;;;1.06;100.00;96667.53;5011936;28;20037;-68
2023/10/17 03:18:23;;;;;;;18.23;11.10;;;;;;;0.95;100.00;96676.94;5018483;28;20064;-68
2023/10/17 03:20:52;;;;;;;22.60;11.55;;;;;;;0.95;100.00;96675.06;5039982;28;20038;-68
2023/10/17 03:23:28;;;;;;;21.08;12.73;;;;;;;1.08;100.00;96675.28;5025351;28;20504;-68
2023/10/17 03:26:00;;;;;;;21.33;13.00;;;;;;;1.07;100.00;96674.50;5023403;28;20099;-68
2023/10/17 03:28:27;;;;;;;18.85;11.77;;;;;;;1.14;100.00;96669.47;5010606;28;20049;-68
2023/10/17 03:30:53;;;;;;;18.88;12.30;;;;;;;1.23;100.00;96669.53;5016709;28;20580;-68
2023/10/17 03:33:27;;;;;;;20.58;12.95;;;;;;;1.25;100.00;96669.25;5024664;28;20037;-68
2023/10/17 03:38:29;;;;;;;21.95;12.90;;;;;;;1.22;100.00;96673.34;5017144;28;20049;-67
2023/10/17 03:41:15;;;;;;;22.17;13.60;;;;;;;1.20;100.00;96680.16;5020728;28;20095;-67
2023/10/17 03:43:52;;;;;;;23.70;13.63;;;;;;;1.11;100.00;96680.88;5006392;28;20046;-66
2023/10/17 03:46:18;;;;;;;22.70;13.27;;;;;;;1.02;100.00;96682.72;5010688;28;20046;-68
2023/10/17 03:48:50;;;;;;;22.27;13.45;;;;;;;0.92;100.00;96682.97;5020234;28;20057;-69
2023/10/17 03:51:23;;;;;;;27.58;13.98;;;;;;;1.00;100.00;96682.22;5015374;28;20045;-67
2023/10/17 03:53:49;;;;;;;23.75;14.38;;;;;;;1.12;100.00;96677.09;5021809;28;20051;-67
2023/10/17 03:56:24;;;;;;;19.85;12.57;;;;;;;0.97;100.00;96690.13;5018017;28;20046;-68
2023/10/17 03:58:59;;;;;;;20.00;13.55;;;;;;;1.01;100.00;96683.81;5014445;28;20069;-68
2023/10/17 04:01:26;;;;;;;22.15;13.45;;;;;;;1.01;100.00;96677.63;5017678;28;20049;-68
2023/10/17 04:03:55;;;;;;;24.95;14.13;;;;;;;1.05;100.00;96679.41;5027681;28;20057;-67
2023/10/17 04:06:34;;;;;;;24.60;13.90;;;;;;;0.92;100.00;96678.34;5024033;28;20072;-69
2023/10/17 04:09:17;;;;;;;23.75;13.80;;;;;;;0.95;100.00;96680.44;5014137;28;20183;-66
2023/10/17 04:11:49;;;;;;;22.98;13.82;;;;;;;0.94;100.00;96675.34;5030047;28;20076;-68
2023/10/17 04:14:17;;;;;;;23.45;14.10;;;;;;;0.96;100.00;96683.94;5016014;28;20061;-68
2023/10/17 04:16:44;;;;;;;24.63;14.15;;;;;;;0.99;100.00;96682.53;5027034;28;20052;-68
2023/10/17 04:19:20;;;;;;;21.75;13.75;;;;;;;1.04;100.00;96680.50;5004457;28;20044;-68
2023/10/17 04:24:28;;;;;;;22.45;13.30;;;;;;;0.91;100.00;96674.06;4999199;28;20045;-68
2023/10/17 04:27:39;;;;;;;24.33;13.75;;;;;;;0.90;100.00;96679.75;5002049;28;20525;-66
2023/10/17 04:29:50;;;;;;;23.15;14.32;;;;;;;0.84;100.00;96678.28;5002404;28;20036;-66
2023/10/17 04:32:16;;;;;;;27.30;14.35;;;;;;;0.93;100.00;96669.16;5024932;28;20072;-66
2023/10/17 04:34:48;;;;;;;26.00;14.85;;;;;;;0.99;100.00;96671.72;5003527;28;20116;-66
2023/10/17 04:37:17;;;;;;;26.80;14.05;;;;;;;0.98;100.00;96675.56;5008485;28;20496;-66
2023/10/17 04:39:48;;;;;;;23.70;13.93;;;;;;;0.95;100.00;96676.94;5027691;28;20084;-67
2023/10/17 04:42:20;;;;;;;27.60;14.88;;;;;;;0.98;100.00;96672.84;5018149;28;20408;-66
2023/10/17 04:45:03;;;;;;;25.42;14.75;;;;;;;0.96;100.00;96667.75;5024895;28;20109;-66
2023/10/17 04:47:30;;;;;;;26.40;14.68;;;;;;;0.93;100.00;96663.75;5013573;28;20042;-66
2023/10/17 04:49:57;;;;;;;28.20;15.68;;;;;;;1.05;100.00;96652.44;5017814;28;20080;-67
2023/10/17 04:52:30;;;;;;;28.52;15.90;;;;;;;1.10;100.00;96654.22;5010917;28;20045;-66
2023/10/17 04:55:17;;;;;;;27.15;15.15;;;;;;;1.08;100.00;96648.31;5001266;28;20037;-66
2023/10/17 05:06:15;;;;;;;25.48;14.77;;;;;;;0.74;100.00;96655.84;5019057;28;20111;-67
2023/10/17 06:17:23;;;;;;;33.78;18.27;;;;;;;0.44;100.00;96686.94;5003078;28;20345;-66
2023/10/17 06:19:49;;;;;;;36.00;19.20;;;;;;;0.45;100.00;96688.53;5002253;28;20057;-66
2023/10/17 06:30:27;;;;;;;35.85;20.15;;;;;;;1.42;100.00;96698.25;5018730;28;20144;-64
2023/10/17 06:35:52;;;;;;;34.20;18.80;;;;;;;1.92;100.00;96690.75;5023197;28;20603;-66
2023/10/17 06:38:17;;;;;;;33.83;17.35;;;;;;;2.03;100.00;96695.88;4999681;28;20049;-70
2023/10/17 06:40:51;;;;;;;30.65;16.83;;;;;;;2.10;100.00;96680.03;5019736;28;20107;-69
2023/10/17 06:43:28;;;;;;;28.65;16.70;;;;;;;2.07;100.00;96689.56;5004840;28;20443;-67
2023/10/17 06:45:55;;;;;;;30.98;17.67;;;;;;;2.32;100.00;96679.13;5012466;28;20131;-67
2023/10/17 06:48:31;;;;;;;28.42;16.88;;;;;;;2.49;100.00;96689.22;4998902;28;20152;-67
2023/10/17 06:53:47;;;;;;;31.15;17.42;;;;;;;2.81;100.00;96684.50;5004901;28;20042;-65
2023/10/17 06:56:13;;;;;;;30.30;16.98;;;;;;;2.87;100.00;96684.03;5005964;28;20046;-68
2023/10/17 06:58:39;;;;;;;29.13;16.83;;;;;;;2.93;100.00;96684.66;5012524;28;20408;-67
2023/10/17 07:01:05;;;;;;;29.35;16.45;;;;;;;2.97;100.00;96691.06;5010084;28;20040;-68
2023/10/17 07:03:37;;;;;;;31.30;17.05;;;;;;;3.09;100.00;96693.13;5022995;28;20087;-67
2023/10/17 07:06:16;;;;;;;27.05;16.38;;;;;;;3.28;100.00;96687.41;5017030;28;20050;-69
2023/10/17 07:08:42;;;;;;;33.88;16.75;;;;;;;3.20;100.00;96680.06;5003675;28;20516;-69
2023/10/17 07:14:10;;;;;;;27.02;16.67;;;;;;;3.18;100.00;96683.09;5033831;28;20049;-68
2023/10/17 07:24:34;;;;;;;32.25;17.48;;;;;;;3.92;100.00;96693.97;5001966;28;20045;-68
2023/10/17 07:27:01;;;;;;;36.42;17.73;;;;;;;3.99;100.00;96695.06;5014211;28;20037;-68
2023/10/17 07:29:33;;;;;;;29.75;17.25;;;;;;;4.01;100.00;96690.09;5007515;28;20137;-65
2023/10/17 07:32:01;;;;;;;30.17;17.75;;;;;;;3.63;100.00;96687.34;5011258;28;20034;-66
2023/10/17 07:34:33;;;;;;;33.53;19.92;;;;;;;3.21;100.00;96677.03;4998575;28;20121;-67
2023/10/17 07:37:12;;;;;;;32.83;18.50;;;;;;;3.27;100.00;96685.00;5003324;28;20509;-67
2023/10/17 07:39:37;;;;;;;29.35;18.38;;;;;;;3.48;100.00;96680.53;5019138;28;20422;-68
2023/10/17 07:42:04;;;;;;;35.08;19.15;;;;;;;3.47;100.00;96673.50;4998953;28;20125;-67
2023/10/17 07:44:34;;;;;;;34.28;21.00;;;;;;;3.25;100.00;96667.16;5003891;28;20119;-67
2023/10/17 07:49:35;;;;;;;34.65;21.30;;;;;;;3.12;100.00;96670.06;5027343;28;20049;-68
2023/10/17 07:52:10;;;;;;;35.83;21.00;;;;;;;3.40;100.00;96679.44;5014677;28;20049;-68
2023/10/17 07:54:45;;;;;;;35.63;20.52;;;;;;;3.41;100.00;96666.69;4996641;28;20046;-70
2023/10/17 07:57:23;;;;;;;42.53;23.58;;;;;;;3.02;100.00;96663.81;5011574;28;20068;-67
2023/10/17 07:59:51;;;;;;;41.47;22.33;;;;;;;3.21;100.00;96662.72;5019198;28;20061;-68
2023/10/17 08:02:20;;;;;;;43.42;25.25;;;;;;;3.46;100.00;96661.09;5012619;28;20041;-68
2023/10/17 08:04:48;;;;;;;46.03;24.92;;;;;;;3.52;100.00;96667.16;5011269;28;20049;-67
2023/10/17 08:07:14;;;;;;;41.60;24.05;;;;;;;3.82;100.00;96662.63;5004169;28;20485;-67
2023/10/17 08:09:56;;;;;;;40.67;22.98;;;;;;;4.24;100.00;96665.47;5002736;28;20042;-67
2023/10/17 08:12:23;;;;;;;39.42;23.20;;;;;;;4.61;100.00;96663.06;5003444;28;20608;-67
2023/10/17 08:14:58;;;;;;;36.53;21.85;;;;;;;4.80;100.00;96670.75;5001134;28;20146;-67
2023/10/17 08:17:28;;;;;;;33.55;21.15;;;;;;;5.07;100.00;96666.72;4997252;28;20750;-65
2023/10/17 08:22:54;;;;;;;36.92;20.52;;;;;;;5.57;100.00;96666.94;5013233;28;20050;-68
2023/10/17 08:25:14;;;;;;;36.97;22.42;;;;;;;5.61;100.00;96674.06;5003980;28;20588;-68
2023/10/17 08:30:23;;;;;;;36.28;22.08;;;;;;;5.07;100.00;96663.22;5007768;28;20063;-67
2023/10/17 08:35:39;;;;;;;36.17;21.23;;;;;;;5.67;100.00;96663.78;5004419;28;20128;-68
2023/10/17 08:38:10;;;;;;;35.13;22.05;;;;;;;6.08;100.00;96672.97;4998371;28;20473;-68
2023/10/17 08:43:06;;;;;;;35.20;19.55;;;;;;;6.51;100.00;96669.72;5001920;28;20497;-67
2023/10/17 08:45:38;;;;;;;29.55;18.10;;;;;;;6.63;100.00;96666.19;5001920;28;20046;-66
2023/10/17 08:48:06;;;;;;;35.63;21.05;;;;;;;6.94;100.00;96669.44;5007405;28;20053;-68
2023/10/17 08:50:37;;;;;;;30.20;19.02;;;;;;;7.03;100.00;96667.38;4991139;28;20399;-67
2023/10/17 08:53:06;;;;;;;34.47;18.80;;;;;;;7.13;100.00;96661.47;4999107;28;20648;-68
2023/10/17 08:55:32;;;;;;;34.45;20.92;;;;;;;7.23;100.00;96662.91;5008220;28;20049;-66
2023/10/17 08:57:59;;;;;;;35.70;19.70;;;;;;;7.09;100.00;96663.28;5001865;28;20516;-67
2023/10/17 09:00:49;;;;;;;33.90;20.35;;;;;;;7.05;100.00;96655.00;5004855;28;20452;-69
2023/10/17 09:03:35;;;;;;;33.85;19.50;;;;;;;7.24;100.00;96661.78;5000944;28;20164;-69
2023/10/17 09:11:14;;;;;;;33.00;20.15;;;;;;;7.41;100.00;96660.69;5010373;28;20034;-67
2023/10/17 09:16:15;;;;;;;32.10;19.20;;;;;;;7.38;100.00;96662.19;5004262;28;20041;-67
2023/10/17 09:18:48;;;;;;;33.40;19.35;;;;;;;7.42;100.00;96659.56;5011159;28;20124;-68
2023/10/17 09:21:20;;;;;;;35.83;19.30;;;;;;;7.58;100.00;96648.69;5020226;28;20049;-67
2023/10/17 09:23:47;;;;;;;29.80;18.95;;;;;;;7.72;100.00;96648.28;5003548;28;20068;-68
2023/10/17 09:26:19;;;;;;;35.35;19.10;;;;;;;7.69;100.00;96649.78;5009794;28;20053;-68
2023/10/17 09:28:46;;;;;;;28.75;17.65;;;;;;;7.50;100.00;96646.91;5002483;28;20123;-67
2023/10/17 09:31:13;;;;;;;27.02;17.65;;;;;;;7.39;100.00;96652.84;5012566;28;20037;-67
2023/10/17 09:33:43;;;;;;;27.10;17.00;;;;;;;7.66;100.00;96650.47;5001366;28;20038;-67
2023/10/17 09:36:09;;;;;;;26.88;17.40;;;;;;;7.64;100.00;96641.84;4997235;28;20508;-68
2023/10/17 09:38:45;;;;;;;31.77;19.67;;;;;;;7.16;100.00;96649.06;5008957;28;20050;-68
2023/10/17 09:41:17;;;;;;;27.50;17.27;;;;;;;7.58;100.00;96641.31;5008868;28;20052;-68
2023/10/17 09:43:53;;;;;;;23.20;15.35;;;;;;;7.73;100.00;96638.97;5011879;28;20038;-66
2023/10/17 09:46:23;;;;;;;25.50;16.88;;;;;;;7.05;100.00;96644.09;5000926;28;20125;-64
2023/10/17 09:48:51;;;;;;;28.05;17.58;;;;;;;6.28;100.00;96644.91;5020019;28;20042;-67
2023/10/17 09:51:27;;;;;;;34.05;21.35;;;;;;;5.87;100.00;96643.09;4999015;28;20045;-68
2023/10/17 09:53:58;;;;;;;32.08;20.50;;;;;;;5.61;100.00;96640.69;5002462;28;20041;-68
2023/10/17 09:56:45;;;;;;;35.97;20.75;;;;;;;5.52;100.00;96635.34;5019145;28;20850;-67
2023/10/17 09:59:14;;;;;;;29.08;18.77;;;;;;;5.84;100.00;96636.44;5005518;28;20479;-67
2023/10/17 10:01:41;;;;;;;32.20;19.38;;;;;;;5.54;100.00;96628.44;5009722;28;20048;-68
2023/10/17 10:04:07;;;;;;;32.67;19.83;;;;;;;5.62;100.00;96634.09;5020289;28;20029;-67
2023/10/17 10:06:36;;;;;;;34.92;19.92;;;;;;;5.62;100.00;96634.91;5035620;28;20369;-69
2023/10/17 10:09:05;;;;;;;34.70;20.60;;;;;;;5.63;100.00;96638.44;5024956;28;20040;-68
2023/10/17 10:11:52;;;;;;;34.25;20.80;;;;;;;5.40;100.00;96644.22;5027493;28;20435;-66
2023/10/17 10:14:23;;;;;;;35.22;20.73;;;;;;;5.49;100.00;96650.41;5014389;28;20044;-66
2023/10/17 10:16:57;;;;;;;34.38;19.98;;;;;;;5.93;100.00;96658.09;5022925;28;20149;-68
2023/10/17 10:19:53;;;;;;;28.60;18.60;;;;;;;6.12;100.00;96660.28;5013723;28;20485;-66
2023/10/17 10:22:18;;;;;;;32.15;18.88;;;;;;;5.87;100.00;96662.13;4988801;28;20140;-67
2023/10/17 10:24:46;;;;;;;31.63;20.10;;;;;;;5.40;100.00;96655.09;5014883;28;20144;-67
2023/10/17 10:27:24;;;;;;;33.08;18.92;;;;;;;5.66;100.00;96640.47;4998198;28;20038;-67
2023/10/17 10:30:14;;;;;;;34.20;19.15;;;;;;;5.64;100.00;96651.69;5003179;28;20046;-65
2023/10/17 10:32:42;;;;;;;31.92;18.58;;;;;;;5.53;100.00;96647.81;5011658;28;20443;-67
2023/10/17 10:35:07;;;;;;;33.45;19.98;;;;;;;5.63;100.00;96641.94;5019470;28;20196;-67
2023/10/17 10:37:53;;;;;;;33.83;18.40;;;;;;;5.85;100.00;96634.50;5017514;28;20168;-66
2023/10/17 10:40:22;;;;;;;28.27;18.33;;;;;;;6.04;100.00;96617.69;5012996;28;20048;-67
2023/10/17 10:42:50;;;;;;;30.75;18.92;;;;;;;6.18;100.00;96614.66;5023601;28;20045;-67
2023/10/17 10:45:24;;;;;;;29.70;18.13;;;;;;;5.95;100.00;96604.16;5005106;28;20570;-68
2023/10/17 10:47:54;;;;;;;31.50;17.35;;;;;;;6.30;100.00;96610.00;5007659;28;20049;-67
2023/10/17 10:50:20;;;;;;;28.33;18.58;;;;;;;6.11;100.00;96605.13;5022188;28;20132;-67
2023/10/17 10:52:45;;;;;;;26.67;16.08;;;;;;;6.78;100.00;96606.75;5023123;28;20132;-68
2023/10/17 10:55:14;;;;;;;23.48;15.27;;;;;;;6.38;100.00;96599.34;5010485;28;20045;-68
2023/10/17 10:57:39;;;;;;;25.70;15.85;;;;;;;7.04;100.00;96592.69;5014999;28;20500;-67
2023/10/17 11:00:08;;;;;;;24.42;15.35;;;;;;;7.67;100.00;96594.81;4992127;28;20056;-68
2023/10/17 11:02:35;;;;;;;25.90;17.10;;;;;;;7.66;100.00;96594.00;5008638;28;20049;-67
2023/10/17 11:05:04;;;;;;;25.63;16.73;;;;;;;7.46;100.00;96590.38;5020061;28;20081;-68
2023/10/17 11:07:31;;;;;;;23.85;16.08;;;;;;;7.21;100.00;96597.88;5003259;28;20439;-68
2023/10/17 11:10:04;;;;;;;23.08;14.80;;;;;;;7.76;100.00;96592.72;5015967;28;20069;-67
2023/10/17 11:12:29;;;;;;;22.42;14.73;;;;;;;7.97;100.00;96597.09;5005413;28;20088;-68
2023/10/17 11:15:18;;;;;;;21.48;13.98;;;;;;;8.77;100.00;96595.09;5022903;28;20456;-67
2023/10/17 11:17:45;;;;;;;19.90;13.60;;;;;;;8.67;100.00;96592.91;5012765;28;20057;-68
2023/10/17 11:20:18;;;;;;;24.27;17.08;;;;;;;8.30;100.00;96585.84;5025745;28;20044;-66
2023/10/17 11:22:46;;;;;;;21.63;13.65;;;;;;;8.62;100.00;96583.06;5014550;28;20041;-67
2023/10/17 11:25:21;;;;;;;20.85;14.15;;;;;;;8.43;100.00;96575.63;5006363;28;20050;-68
2023/10/17 11:27:55;;;;;;;18.77;12.98;;;;;;;9.92;100.00;96573.47;5010893;28;20081;-66
2023/10/17 11:30:32;;;;;;;17.13;12.20;;;;;;;9.56;100.00;96572.03;5012811;28;20560;-67
2023/10/17 11:33:03;;;;;;;16.27;12.02;;;;;;;8.92;100.00;96569.66;5005356;28;20057;-69
2023/10/17 11:35:29;;;;;;;16.05;12.05;;;;;;;10.27;100.00;96577.94;4992032;28;20069;-68
2023/10/17 11:37:56;;;;;;;19.27;13.77;;;;;;;10.51;100.00;96579.50;5016173;28;20127;-71
2023/10/17 11:40:42;;;;;;;17.10;11.10;;;;;;;11.52;100.00;96574.47;5012969;28;20050;-69
2023/10/17 11:43:28;;;;;;;14.38;10.38;;;;;;;13.69;86.47;96576.31;5016315;28;20115;-67
2023/10/17 11:45:53;;;;;;;15.18;11.18;;;;;;;12.28;86.08;96578.72;5021416;28;20551;-67
2023/10/17 11:48:30;;;;;;;16.58;11.38;;;;;;;12.28;90.76;96575.97;5004292;28;20072;-69
2023/10/17 11:51:13;;;;;;;17.33;10.88;;;;;;;13.59;80.34;96579.81;5014623;28;20049;-69
2023/10/17 11:54:05;;;;;;;14.00;10.38;;;;;;;12.66;86.58;96571.13;5000816;28;20042;-68
2023/10/17 11:56:39;;;;;;;15.40;10.77;;;;;;;13.57;80.48;96574.69;5001725;28;20046;-68
2023/10/17 11:59:10;;;;;;;15.00;10.82;;;;;;;13.54;79.54;96572.75;5006828;28;20085;-65
2023/10/17 12:01:36;;;;;;;15.52;10.57;;;;;;;13.88;75.66;96577.13;4984583;28;20151;-69
2023/10/17 12:04:10;;;;;;;14.93;10.68;;;;;;;13.73;77.04;96571.59;5020274;28;20634;-64
2023/10/17 12:06:36;;;;;;;16.17;11.95;;;;;;;11.67;91.78;96548.78;5013313;28;20129;-67
2023/10/17 12:09:22;;;;;;;17.17;11.00;;;;;;;10.92;95.90;96554.22;5011758;28;20192;-69
2023/10/17 12:11:52;;;;;;;15.18;11.02;;;;;;;11.14;100.00;96552.53;5009400;28;20041;-71
2023/10/17 12:14:21;;;;;;;18.92;12.60;;;;;;;11.49;97.21;96543.13;4997586;28;20050;-69
2023/10/17 12:16:53;;;;;;;19.02;13.30;;;;;;;11.13;98.56;96550.16;5002203;28;20071;-69
2023/10/17 12:19:26;;;;;;;19.05;12.45;;;;;;;12.29;93.43;96539.91;5002275;28;20037;-70
2023/10/17 12:21:53;;;;;;;16.23;12.10;;;;;;;12.60;88.73;96545.97;5012535;28;20061;-69
2023/10/17 12:24:24;;;;;;;16.80;12.18;;;;;;;11.54;95.17;96545.53;5012105;28;20042;-69
2023/10/17 12:26:50;;;;;;;21.10;13.00;;;;;;;10.38;100.00;96542.53;5010007;28;20077;-68
2023/10/17 12:29:17;;;;;;;17.98;12.77;;;;;;;10.47;100.00;96548.53;5006834;28;20100;-68
2023/10/17 12:31:43;;;;;;;18.33;12.95;;;;;;;11.38;100.00;96543.00;5017339;28;20084;-69
2023/10/17 12:34:08;;;;;;;18.13;12.50;;;;;;;12.08;92.94;96534.25;4995848;28;20133;-69
2023/10/17 12:36:35;;;;;;;22.02;13.13;;;;;;;12.70;88.50;96537.03;5007544;28;20132;-69
2023/10/17 12:39:02;;;;;;;19.35;12.88;;;;;;;12.86;84.92;96544.97;5012725;28;20115;-69
2023/10/17 12:41:30;;;;;;;22.25;13.75;;;;;;;12.93;84.03;96547.75;5020598;28;20053;-68
2023/10/17 12:43:56;;;;;;;18.55;12.27;;;;;;;12.49;85.64;96543.16;5027487;28;20111;-69
2023/10/17 12:46:21;;;;;;;17.60;12.95;;;;;;;12.43;87.77;96530.97;4996512;28;20868;-69
2023/10/17 12:48:47;;;;;;;19.10;12.55;;;;;;;11.67;94.18;96518.59;5001198;28;20133;-68
2023/10/17 12:51:13;;;;;;;17.63;11.80;;;;;;;12.26;95.16;96518.69;5007730;28;20112;-69
2023/10/17 12:53:40;;;;;;;19.83;12.00;;;;;;;11.92;96.52;96513.38;5005732;28;20081;-68
2023/10/17 12:56:10;;;;;;;16.08;11.93;;;;;;;11.75;97.43;96503.78;5015383;28;20051;-69
2023/10/17 12:58:36;;;;;;;16.75;12.63;;;;;;;11.00;100.00;96495.59;5006768;28;20092;-69
2023/10/17 13:01:04;;;;;;;20.20;12.68;;;;;;;11.40;100.00;96491.31;5010164;28;20069;-66
2023/10/17 13:03:33;;;;;;;21.85;13.13;;;;;;;11.37;100.00;96496.78;5007096;28;20566;-68
2023/10/17 13:06:00;;;;;;;18.35;13.18;;;;;;;10.92;100.00;96488.47;5001048;28;20054;-69
2023/10/17 13:08:26;;;;;;;19.38;13.60;;;;;;;10.13;100.00;96484.66;5006952;28;20115;-66
2023/10/17 13:10:55;;;;;;;20.23;14.93;;;;;;;10.42;100.00;96485.88;5000297;28;20049;-68
2023/10/17 13:13:22;;;;;;;19.02;13.75;;;;;;;10.94;100.00;96483.38;4978761;28;20049;-68
2023/10/17 13:15:48;;;;;;;18.88;13.82;;;;;;;10.78;100.00;96480.06;5015345;28;20037;-68
2023/10/17 13:18:14;;;;;;;17.52;12.52;;;;;;;10.36;100.00;96470.16;5001390;28;20484;-67
2023/10/17 13:20:46;;;;;;;17.58;12.82;;;;;;;10.99;100.00;96465.84;4995952;28;20054;-66
2023/10/17 13:23:17;;;;;;;19.20;13.00;;;;;;;11.60;100.00;96482.88;4995493;28;20042;-67
2023/10/17 13:25:43;;;;;;;21.55;13.13;;;;;;;11.74;100.00;96480.25;5008313;28;20393;-67
2023/10/17 13:28:09;;;;;;;22.27;13.63;;;;;;;11.58;100.00;96480.50;4997239;28;20496;-68
2023/10/17 13:30:35;;;;;;;23.00;14.05;;;;;;;11.76;100.00;96482.63;5022187;28;20045;-68
2023/10/17 13:33:01;;;;;;;22.98;13.75;;;;;;;11.63;100.00;96480.16;5003784;28;20393;-68
2023/10/17 13:35:28;;;;;;;20.23;14.02;;;;;;;11.70;100.00;96487.66;5010594;28;20053;-69
2023/10/17 13:37:55;;;;;;;22.30;13.50;;;;;;;11.73;100.00;96488.88;5009048;28;20045;-69
2023/10/17 13:40:23;;;;;;;23.15;13.63;;;;;;;11.67;100.00;96482.94;5002393;28;20042;-68
2023/10/17 13:42:55;;;;;;;20.98;13.95;;;;;;;11.50;100.00;96480.81;5013167;28;20677;-68
2023/10/17 13:45:27;;;;;;;22.25;14.02;;;;;;;11.51;100.00;96465.97;5015968;28;20141;-69
2023/10/17 13:47:53;;;;;;;20.52;13.35;;;;;;;11.63;100.00;96476.63;5015513;28;20060;-69
2023/10/17 13:50:19;;;;;;;22.23;14.75;;;;;;;11.64;100.00;96479.00;5017327;28;20096;-67
2023/10/17 13:52:54;;;;;;;19.70;13.60;;;;;;;11.78;100.00;96477.53;5020331;28;20053;-66
2023/10/17 13:55:25;;;;;;;20.70;14.43;;;;;;;11.60;100.00;96475.44;4999116;28;20038;-69